Time;durP1;ratioP1;P1;durP2;ratioP2;P2;SDS_P1;SDS_P2;PMS_P1;PMS_P2;Temp;Humidity;BMP_temperature;BMP_pressure;BME280_temperature;BME280_humidity;BME280_pressure;Samples;Min_cycle;Max_cycle;Signal;HPM_P1;HPM_P2
2024/02/18 00:00:49;;;;;;;2.92;1.48;;;;;;;;;;2056227;28;20026;-48
2024/02/18 00:01:50;;;;;;;4.07;1.88;;;;;;;;;;2056263;28;20497;-48
2024/02/18 00:02:53;;;;;;;2.90;1.58;;;;;;;;;;2056411;28;20126;-48
2024/02/18 00:03:54;;;;;;;2.70;1.60;;;;;;;;;;2056363;28;20098;-48
2024/02/18 00:04:56;;;;;;;2.78;1.60;;;;;;;;;;2056388;28;20462;-48
2024/02/18 00:05:58;;;;;;;5.70;1.80;;;;;;;;;;2053255;28;20103;-47
2024/02/18 00:06:59;;;;;;;2.67;1.90;;;;;;;;;;2054205;28;20043;-48
2024/02/18 00:08:01;;;;;;;3.58;1.70;;;;;;;;;;2055588;28;20046;-48
2024/02/18 00:09:04;;;;;;;3.65;1.77;;;;;;;;;;2053993;28;20073;-48
2024/02/18 00:10:05;;;;;;;3.58;2.00;;;;;;;;;;2055845;28;20026;-47
2024/02/18 00:11:07;;;;;;;2.95;1.50;;;;;;;;;;2053500;28;20073;-49
2024/02/18 00:12:08;;;;;;;2.05;1.50;;;;;;;;;;2063752;28;20067;-48
2024/02/18 00:13:09;;;;;;;2.80;1.80;;;;;;;;;;2056084;28;20129;-48
2024/02/18 00:14:11;;;;;;;4.57;2.38;;;;;;;;;;2055731;28;20023;-48
2024/02/18 00:15:12;;;;;;;4.88;2.50;;;;;;;;;;2055650;28;20026;-48
2024/02/18 00:16:13;;;;;;;3.75;2.25;;;;;;;;;;2056383;28;20553;-49
2024/02/18 00:17:14;;;;;;;4.70;2.10;;;;;;;;;;2056410;28;20031;-48
2024/02/18 00:18:16;;;;;;;4.13;1.92;;;;;;;;;;2056399;28;20043;-48
2024/02/18 00:19:17;;;;;;;5.82;2.35;;;;;;;;;;2056762;28;20104;-48
2024/02/18 00:20:19;;;;;;;3.83;2.05;;;;;;;;;;2056518;28;20354;-55
2024/02/18 00:21:21;;;;;;;3.50;1.95;;;;;;;;;;2056673;28;20078;-48
2024/02/18 00:22:22;;;;;;;3.70;1.90;;;;;;;;;;2048885;28;20119;-47
2024/02/18 00:23:24;;;;;;;4.55;2.28;;;;;;;;;;2050793;28;20035;-48
2024/02/18 00:24:25;;;;;;;4.47;2.25;;;;;;;;;;2048815;28;20110;-49
2024/02/18 00:25:26;;;;;;;4.57;2.10;;;;;;;;;;2054760;28;20030;-48
2024/02/18 00:26:27;;;;;;;4.10;2.00;;;;;;;;;;2056324;28;20101;-47
2024/02/18 00:27:29;;;;;;;5.25;2.45;;;;;;;;;;2056435;28;20018;-49
2024/02/18 00:28:32;;;;;;;4.95;2.13;;;;;;;;;;2063625;28;20030;-48
2024/02/18 00:29:33;;;;;;;5.22;2.50;;;;;;;;;;2063476;28;20018;-48
2024/02/18 00:30:34;;;;;;;3.97;2.45;;;;;;;;;;2052945;28;20082;-48
2024/02/18 00:31:37;;;;;;;5.28;2.38;;;;;;;;;;2052288;28;20081;-47
2024/02/18 00:32:38;;;;;;;3.88;2.33;;;;;;;;;;2056406;28;20035;-48
2024/02/18 00:33:39;;;;;;;6.63;2.53;;;;;;;;;;2056324;28;20538;-48
2024/02/18 00:34:40;;;;;;;4.68;2.40;;;;;;;;;;2056426;28;20038;-48
2024/02/18 00:35:42;;;;;;;5.07;2.50;;;;;;;;;;2056433;28;20025;-48
2024/02/18 00:36:43;;;;;;;4.00;2.00;;;;;;;;;;2056137;28;20081;-48
2024/02/18 00:37:44;;;;;;;4.05;2.42;;;;;;;;;;2056001;28;20023;-47
2024/02/18 00:38:45;;;;;;;3.47;2.03;;;;;;;;;;2056259;28;20050;-48
2024/02/18 00:39:47;;;;;;;3.60;2.30;;;;;;;;;;2056338;28;20505;-48
2024/02/18 00:40:48;;;;;;;3.50;2.13;;;;;;;;;;2056422;28;20069;-48
2024/02/18 00:41:49;;;;;;;4.50;2.20;;;;;;;;;;2055450;28;20023;-48
2024/02/18 00:42:50;;;;;;;5.30;2.83;;;;;;;;;;2055684;28;20387;-48
2024/02/18 00:43:51;;;;;;;4.78;2.30;;;;;;;;;;2056306;28;20027;-47
2024/02/18 00:44:53;;;;;;;2.75;1.67;;;;;;;;;;2056171;28;20007;-48
2024/02/18 00:45:54;;;;;;;3.33;1.75;;;;;;;;;;2055961;28;20077;-48
2024/02/18 00:46:55;;;;;;;3.92;1.80;;;;;;;;;;2056269;28;20031;-49
2024/02/18 00:47:56;;;;;;;6.88;2.10;;;;;;;;;;2056247;28;20054;-48
2024/02/18 00:48:58;;;;;;;2.58;1.80;;;;;;;;;;2056261;28;20134;-48
2024/02/18 00:49:59;;;;;;;2.47;1.67;;;;;;;;;;2056132;28;20047;-48
2024/02/18 00:51:00;;;;;;;4.25;1.85;;;;;;;;;;2056308;28;20045;-49
2024/02/18 00:52:01;;;;;;;2.88;1.67;;;;;;;;;;2056283;28;20026;-48
2024/02/18 00:53:03;;;;;;;4.35;1.70;;;;;;;;;;2054471;28;20559;-50
2024/02/18 00:54:04;;;;;;;6.43;2.13;;;;;;;;;;2055340;28;20029;-49
2024/02/18 00:55:05;;;;;;;4.30;2.10;;;;;;;;;;2051971;28;20050;-48
2024/02/18 00:56:08;;;;;;;4.35;2.20;;;;;;;;;;2052852;28;20106;-48
2024/02/18 00:57:09;;;;;;;3.50;1.80;;;;;;;;;;2055463;28;20516;-48
2024/02/18 00:58:11;;;;;;;4.63;2.30;;;;;;;;;;2056439;28;20027;-49
2024/02/18 00:59:12;;;;;;;3.13;1.77;;;;;;;;;;2056050;28;20382;-48
2024/02/18 01:00:13;;;;;;;4.03;2.00;;;;;;;;;;2056327;28;20031;-49
2024/02/18 01:01:15;;;;;;;4.32;1.90;;;;;;;;;;2056121;28;20118;-49
2024/02/18 01:02:16;;;;;;;3.50;1.85;;;;;;;;;;2056140;28;20027;-48
2024/02/18 01:03:17;;;;;;;3.20;1.88;;;;;;;;;;2056411;28;20011;-48
2024/02/18 01:04:19;;;;;;;6.45;2.40;;;;;;;;;;2056143;28;20474;-49
2024/02/18 01:05:20;;;;;;;2.63;1.98;;;;;;;;;;2056168;28;20050;-49
2024/02/18 01:06:21;;;;;;;4.25;1.90;;;;;;;;;;2056349;28;20027;-48
2024/02/18 01:07:22;;;;;;;4.45;2.50;;;;;;;;;;2056191;28;20144;-47
2024/02/18 01:08:24;;;;;;;3.15;1.90;;;;;;;;;;2056381;28;20031;-52
2024/02/18 01:09:25;;;;;;;6.10;2.20;;;;;;;;;;2056286;28;20076;-51
2024/02/18 01:10:28;;;;;;;3.05;2.00;;;;;;;;;;2056126;28;20031;-51
2024/02/18 01:11:30;;;;;;;5.03;2.10;;;;;;;;;;2056468;28;20042;-51
2024/02/18 01:12:32;;;;;;;2.95;1.85;;;;;;;;;;2050232;28;20023;-52
2024/02/18 01:13:34;;;;;;;5.05;2.35;;;;;;;;;;2050943;28;20027;-52
2024/02/18 01:14:35;;;;;;;4.65;2.00;;;;;;;;;;2055799;28;20034;-52
2024/02/18 01:15:38;;;;;;;2.97;1.88;;;;;;;;;;2055309;28;20035;-51
2024/02/18 01:16:40;;;;;;;4.07;2.25;;;;;;;;;;2056155;28;20019;-51
2024/02/18 01:17:41;;;;;;;4.47;2.42;;;;;;;;;;2056498;28;20077;-51
2024/02/18 01:18:44;;;;;;;4.63;2.08;;;;;;;;;;2052844;28;20020;-50
2024/02/18 01:19:45;;;;;;;5.40;2.50;;;;;;;;;;2049312;29;20091;-51
2024/02/18 01:20:47;;;;;;;4.60;1.90;;;;;;;;;;2057447;28;20019;-51
2024/02/18 01:21:48;;;;;;;4.30;2.30;;;;;;;;;;2057559;28;20014;-53
2024/02/18 01:22:49;;;;;;;3.10;1.90;;;;;;;;;;2057725;28;20014;-50
2024/02/18 01:23:51;;;;;;;4.63;1.90;;;;;;;;;;2057502;28;20484;-50
2024/02/18 01:24:52;;;;;;;3.13;2.00;;;;;;;;;;2057059;28;20011;-52
2024/02/18 01:25:53;;;;;;;3.67;1.92;;;;;;;;;;2057133;28;20395;-51
2024/02/18 01:26:54;;;;;;;3.00;1.88;;;;;;;;;;2052535;28;20062;-51
2024/02/18 01:27:56;;;;;;;3.92;1.90;;;;;;;;;;2049787;28;20027;-50
2024/02/18 01:28:58;;;;;;;3.80;1.60;;;;;;;;;;2057897;28;20018;-49
2024/02/18 01:29:59;;;;;;;3.80;2.13;;;;;;;;;;2057091;28;20605;-52
2024/02/18 01:31:01;;;;;;;4.13;2.10;;;;;;;;;;2065206;28;20433;-52
2024/02/18 01:32:02;;;;;;;3.83;1.65;;;;;;;;;;2065278;28;20552;-52
2024/02/18 01:33:03;;;;;;;2.55;1.70;;;;;;;;;;2052390;28;20031;-52
2024/02/18 01:34:05;;;;;;;2.67;1.60;;;;;;;;;;2057649;28;20034;-50
2024/02/18 01:35:07;;;;;;;2.53;1.73;;;;;;;;;;2057506;28;20066;-51
2024/02/18 01:36:08;;;;;;;5.10;1.77;;;;;;;;;;2057542;28;20031;-47
2024/02/18 01:37:09;;;;;;;3.78;1.70;;;;;;;;;;2054533;28;20347;-49
2024/02/18 01:38:10;;;;;;;2.65;1.70;;;;;;;;;;2054194;28;20031;-52
2024/02/18 01:39:12;;;;;;;3.97;1.70;;;;;;;;;;2049715;28;20017;-50
2024/02/18 01:40:13;;;;;;;3.35;1.83;;;;;;;;;;2049697;28;20034;-51
2024/02/18 01:41:15;;;;;;;3.78;1.80;;;;;;;;;;2053327;28;20026;-51
2024/02/18 01:42:16;;;;;;;4.65;1.67;;;;;;;;;;2057854;28;20046;-51
2024/02/18 01:43:17;;;;;;;3.85;1.98;;;;;;;;;;2056837;28;20430;-52
2024/02/18 01:44:19;;;;;;;2.78;1.77;;;;;;;;;;2056916;28;20137;-49
2024/02/18 01:45:20;;;;;;;3.35;1.88;;;;;;;;;;2057634;28;20102;-49
2024/02/18 01:46:22;;;;;;;4.32;1.92;;;;;;;;;;2057275;28;20505;-50
2024/02/18 01:47:24;;;;;;;3.40;1.90;;;;;;;;;;2057247;28;20023;-51
2024/02/18 01:48:25;;;;;;;4.70;1.92;;;;;;;;;;2057663;28;20026;-50
2024/02/18 01:49:26;;;;;;;3.53;2.22;;;;;;;;;;2056922;28;20097;-51
2024/02/18 01:50:29;;;;;;;3.50;1.85;;;;;;;;;;2057678;28;20078;-51
2024/02/18 01:51:30;;;;;;;3.60;2.20;;;;;;;;;;2057383;28;20023;-50
2024/02/18 01:52:32;;;;;;;4.07;2.10;;;;;;;;;;2064717;28;20417;-52
2024/02/18 01:53:35;;;;;;;2.90;1.95;;;;;;;;;;2064678;28;20098;-50
2024/02/18 01:54:36;;;;;;;3.67;1.92;;;;;;;;;;2057271;28;20023;-50
2024/02/18 01:55:38;;;;;;;4.85;2.38;;;;;;;;;;2057194;28;20019;-49
2024/02/18 01:56:40;;;;;;;4.55;2.38;;;;;;;;;;2057516;28;20061;-49
2024/02/18 01:57:42;;;;;;;4.63;2.60;;;;;;;;;;2057108;28;20019;-50
2024/02/18 01:58:43;;;;;;;3.80;2.30;;;;;;;;;;2057312;28;20015;-52
2024/02/18 01:59:45;;;;;;;3.38;2.35;;;;;;;;;;2055989;28;20019;-49
2024/02/18 02:00:48;;;;;;;4.25;2.33;;;;;;;;;;2057125;28;20046;-48
2024/02/18 02:01:49;;;;;;;3.25;2.10;;;;;;;;;;2056732;28;20023;-48
2024/02/18 02:02:51;;;;;;;5.13;2.15;;;;;;;;;;2048948;28;20023;-48
2024/02/18 02:03:52;;;;;;;5.20;2.20;;;;;;;;;;2048949;28;20011;-48
2024/02/18 02:04:54;;;;;;;4.47;2.20;;;;;;;;;;2049102;28;20023;-48
2024/02/18 02:05:55;;;;;;;5.70;2.70;;;;;;;;;;2052748;28;20007;-47
2024/02/18 02:06:58;;;;;;;6.15;2.78;;;;;;;;;;2064461;28;20095;-47
2024/02/18 02:07:59;;;;;;;4.72;2.35;;;;;;;;;;2057281;28;20102;-48
2024/02/18 02:09:01;;;;;;;4.70;2.35;;;;;;;;;;2057132;28;20037;-49
2024/02/18 02:10:03;;;;;;;4.25;2.42;;;;;;;;;;2057411;28;20027;-48
2024/02/18 02:11:05;;;;;;;5.30;2.58;;;;;;;;;;2057230;28;20521;-47
2024/02/18 02:12:09;;;;;;;4.53;2.22;;;;;;;;;;2057015;28;20023;-47
2024/02/18 02:13:11;;;;;;;4.25;2.30;;;;;;;;;;2057079;28;20042;-51
2024/02/18 02:14:13;;;;;;;4.15;2.58;;;;;;;;;;2057041;28;20102;-47
2024/02/18 02:15:14;;;;;;;4.90;2.35;;;;;;;;;;2056235;28;20062;-48
2024/02/18 02:16:16;;;;;;;3.88;2.28;;;;;;;;;;2056350;28;20109;-48
2024/02/18 02:17:18;;;;;;;3.65;2.28;;;;;;;;;;2057109;28;20034;-47
2024/02/18 02:18:19;;;;;;;4.80;2.70;;;;;;;;;;2057099;28;20118;-51
2024/02/18 02:19:23;;;;;;;3.25;2.13;;;;;;;;;;2057078;28;20015;-52
2024/02/18 02:20:24;;;;;;;5.20;2.05;;;;;;;;;;2056980;28;20019;-51
2024/02/18 02:21:26;;;;;;;4.15;2.40;;;;;;;;;;2054686;28;20097;-51
2024/02/18 02:22:27;;;;;;;3.90;2.25;;;;;;;;;;2055944;28;20074;-50
2024/02/18 02:23:31;;;;;;;3.35;2.10;;;;;;;;;;2057010;28;20110;-51
2024/02/18 02:24:32;;;;;;;3.22;1.70;;;;;;;;;;2057215;28;20409;-49
2024/02/18 02:25:35;;;;;;;3.17;1.73;;;;;;;;;;2057146;28;20106;-50
2024/02/18 02:26:39;;;;;;;4.20;1.98;;;;;;;;;;2057120;28;20038;-51
2024/02/18 02:27:45;;;;;;;6.60;2.08;;;;;;;;;;2057247;28;20023;-52
2024/02/18 02:28:51;;;;;;;3.45;1.90;;;;;;;;;;2055908;28;20027;-53
2024/02/18 02:29:52;;;;;;;3.88;1.83;;;;;;;;;;2056112;28;20057;-48
2024/02/18 02:30:53;;;;;;;3.13;1.88;;;;;;;;;;2057279;28;20061;-52
2024/02/18 02:31:56;;;;;;;3.22;2.08;;;;;;;;;;2057051;28;20111;-51
2024/02/18 02:32:57;;;;;;;7.43;2.50;;;;;;;;;;2056966;28;20493;-51
2024/02/18 02:33:58;;;;;;;2.53;1.60;;;;;;;;;;2055864;28;20022;-51
2024/02/18 02:34:59;;;;;;;2.95;1.70;;;;;;;;;;2056880;28;20118;-51
2024/02/18 02:36:01;;;;;;;3.42;1.40;;;;;;;;;;2057052;28;20429;-51
2024/02/18 02:37:02;;;;;;;4.50;1.58;;;;;;;;;;2057059;28;20023;-48
2024/02/18 02:38:03;;;;;;;2.35;1.60;;;;;;;;;;2056983;28;20537;-47
2024/02/18 02:39:04;;;;;;;6.10;1.70;;;;;;;;;;2056893;28;20471;-48
2024/02/18 02:40:06;;;;;;;2.83;1.88;;;;;;;;;;2057105;28;20030;-48
2024/02/18 02:41:07;;;;;;;4.60;2.13;;;;;;;;;;2056564;28;20019;-48
2024/02/18 02:42:09;;;;;;;3.75;1.83;;;;;;;;;;2056267;28;20034;-49
2024/02/18 02:43:12;;;;;;;3.22;1.95;;;;;;;;;;2055833;28;20037;-48
2024/02/18 02:44:13;;;;;;;4.10;1.73;;;;;;;;;;2056908;28;20102;-48
2024/02/18 02:45:15;;;;;;;3.28;1.85;;;;;;;;;;2056840;28;20549;-48
2024/02/18 02:46:16;;;;;;;3.65;1.63;;;;;;;;;;2056261;28;20015;-48
2024/02/18 02:47:17;;;;;;;3.10;1.90;;;;;;;;;;2056279;28;20094;-47
2024/02/18 02:48:18;;;;;;;3.67;1.90;;;;;;;;;;2056933;28;20430;-49
2024/02/18 02:49:20;;;;;;;3.30;1.35;;;;;;;;;;2056615;28;20062;-49
2024/02/18 02:50:21;;;;;;;2.47;1.70;;;;;;;;;;2055985;28;20035;-47
2024/02/18 02:51:22;;;;;;;4.13;1.77;;;;;;;;;;2057057;28;20490;-47
2024/02/18 02:52:23;;;;;;;3.67;1.70;;;;;;;;;;2056860;28;20065;-48
2024/02/18 02:53:25;;;;;;;2.40;1.33;;;;;;;;;;2056933;28;20453;-47
2024/02/18 02:54:26;;;;;;;2.47;1.38;;;;;;;;;;2056945;28;20335;-48
2024/02/18 02:55:27;;;;;;;2.30;1.38;;;;;;;;;;2052025;28;20027;-47
2024/02/18 02:56:28;;;;;;;2.45;1.40;;;;;;;;;;2049116;28;20059;-47
2024/02/18 02:57:30;;;;;;;3.88;1.70;;;;;;;;;;2056354;28;20030;-47
2024/02/18 02:58:32;;;;;;;2.25;1.48;;;;;;;;;;2056147;28;20132;-47
2024/02/18 02:59:33;;;;;;;3.88;1.80;;;;;;;;;;2057050;28;20019;-48
2024/02/18 03:00:34;;;;;;;3.53;1.67;;;;;;;;;;2056889;28;20114;-48
2024/02/18 03:01:35;;;;;;;3.17;1.63;;;;;;;;;;2053910;28;20110;-48
2024/02/18 03:02:37;;;;;;;4.95;1.85;;;;;;;;;;2056931;28;20366;-47
2024/02/18 03:03:39;;;;;;;3.50;1.70;;;;;;;;;;2056733;28;20023;-47
2024/02/18 03:04:41;;;;;;;4.30;1.67;;;;;;;;;;2056598;28;20014;-48
2024/02/18 03:05:42;;;;;;;2.38;1.63;;;;;;;;;;2056097;28;20106;-48
2024/02/18 03:06:43;;;;;;;2.92;1.63;;;;;;;;;;2056151;28;20089;-47
2024/02/18 03:07:45;;;;;;;3.50;1.88;;;;;;;;;;2056198;28;20373;-48
2024/02/18 03:08:46;;;;;;;2.78;1.48;;;;;;;;;;2057038;28;20049;-47
2024/02/18 03:09:47;;;;;;;4.10;1.70;;;;;;;;;;2057168;28;20453;-47
2024/02/18 03:10:48;;;;;;;4.13;1.60;;;;;;;;;;2064042;28;20030;-48
2024/02/18 03:11:50;;;;;;;2.08;1.38;;;;;;;;;;2064533;28;20026;-47
2024/02/18 03:12:51;;;;;;;2.92;1.88;;;;;;;;;;2064342;28;20076;-48
2024/02/18 03:13:54;;;;;;;3.65;1.55;;;;;;;;;;2056806;28;20474;-47
2024/02/18 03:14:55;;;;;;;3.15;1.60;;;;;;;;;;2055953;28;20123;-48
2024/02/18 03:15:56;;;;;;;4.63;1.52;;;;;;;;;;2055237;28;20098;-48
2024/02/18 03:16:59;;;;;;;2.78;1.63;;;;;;;;;;2056694;28;20031;-48
2024/02/18 03:18:00;;;;;;;3.75;1.77;;;;;;;;;;2057032;28;20378;-48
2024/02/18 03:19:01;;;;;;;4.03;1.98;;;;;;;;;;2056472;28;20071;-47
2024/02/18 03:20:07;;;;;;;2.67;1.80;;;;;;;;;;2056807;28;20057;-47
2024/02/18 03:21:08;;;;;;;2.40;1.63;;;;;;;;;;2049179;28;20019;-48
2024/02/18 03:22:09;;;;;;;2.95;1.70;;;;;;;;;;2054035;28;20019;-48
2024/02/18 03:23:11;;;;;;;2.45;1.40;;;;;;;;;;2056241;28;20010;-47
2024/02/18 03:24:12;;;;;;;2.45;1.25;;;;;;;;;;2056434;28;20023;-48
2024/02/18 03:25:13;;;;;;;2.65;1.63;;;;;;;;;;2055816;28;20022;-48
2024/02/18 03:26:15;;;;;;;3.03;1.70;;;;;;;;;;2056196;28;20109;-47
2024/02/18 03:27:17;;;;;;;3.05;1.50;;;;;;;;;;2056663;28;20022;-48
2024/02/18 03:28:18;;;;;;;3.13;1.80;;;;;;;;;;2056702;28;20451;-48
2024/02/18 03:29:20;;;;;;;2.78;1.48;;;;;;;;;;2056082;28;20035;-47
2024/02/18 03:30:21;;;;;;;3.10;1.58;;;;;;;;;;2056045;28;20011;-47
2024/02/18 03:31:22;;;;;;;2.35;1.50;;;;;;;;;;2056054;28;20029;-47
2024/02/18 03:32:24;;;;;;;1.98;1.45;;;;;;;;;;2048877;28;20011;-48
2024/02/18 03:33:25;;;;;;;2.83;1.58;;;;;;;;;;2051946;28;20023;-48
2024/02/18 03:34:26;;;;;;;3.03;1.40;;;;;;;;;;2056748;28;20030;-48
2024/02/18 03:35:27;;;;;;;3.03;1.60;;;;;;;;;;2056589;28;20053;-48
2024/02/18 03:36:30;;;;;;;3.53;1.80;;;;;;;;;;2056278;28;20467;-47
2024/02/18 03:37:32;;;;;;;2.92;1.52;;;;;;;;;;2056711;28;20026;-47
2024/02/18 03:38:33;;;;;;;1.85;1.30;;;;;;;;;;2056557;28;20034;-51
2024/02/18 03:39:34;;;;;;;3.35;1.60;;;;;;;;;;2056557;28;20102;-51
2024/02/18 03:40:36;;;;;;;2.50;1.60;;;;;;;;;;2056744;28;20398;-50
2024/02/18 03:41:37;;;;;;;2.45;1.30;;;;;;;;;;2055515;28;20022;-49
2024/02/18 03:42:38;;;;;;;3.40;1.80;;;;;;;;;;2056696;28;20490;-53
2024/02/18 03:43:40;;;;;;;3.67;1.50;;;;;;;;;;2056278;28;20023;-49
2024/02/18 03:44:41;;;;;;;2.10;1.48;;;;;;;;;;2056558;28;20011;-51
2024/02/18 03:45:42;;;;;;;1.90;1.35;;;;;;;;;;2055052;28;20474;-51
2024/02/18 03:46:44;;;;;;;3.85;1.77;;;;;;;;;;2056441;28;20114;-50
2024/02/18 03:47:45;;;;;;;2.38;1.30;;;;;;;;;;2056629;28;20425;-50
2024/02/18 03:48:46;;;;;;;2.72;1.52;;;;;;;;;;2056602;28;20041;-51
2024/02/18 03:49:47;;;;;;;2.92;1.58;;;;;;;;;;2054438;28;20019;-48
2024/02/18 03:50:49;;;;;;;2.40;1.48;;;;;;;;;;2055214;28;20026;-51
2024/02/18 03:51:50;;;;;;;3.22;1.70;;;;;;;;;;2056267;28;20489;-51
2024/02/18 03:52:52;;;;;;;4.40;1.85;;;;;;;;;;2056452;28;20033;-49
2024/02/18 03:53:53;;;;;;;5.32;1.48;;;;;;;;;;2056337;28;20058;-52
2024/02/18 03:54:54;;;;;;;3.42;1.65;;;;;;;;;;2056196;28;20109;-50
2024/02/18 03:55:56;;;;;;;3.20;1.63;;;;;;;;;;2056183;28;20031;-51
2024/02/18 03:56:57;;;;;;;3.08;1.20;;;;;;;;;;2056136;28;20023;-52
2024/02/18 03:57:58;;;;;;;2.90;1.50;;;;;;;;;;2056359;28;20042;-52
2024/02/18 03:58:59;;;;;;;2.90;1.45;;;;;;;;;;2050118;28;20252;-51
2024/02/18 04:00:00;;;;;;;2.00;1.27;;;;;;;;;;2053899;28;20042;-52
2024/02/18 04:01:02;;;;;;;2.75;1.40;;;;;;;;;;2055681;28;20093;-52
2024/02/18 04:02:03;;;;;;;3.42;1.60;;;;;;;;;;2055833;28;20085;-51
2024/02/18 04:03:04;;;;;;;3.55;1.42;;;;;;;;;;2055735;28;20481;-50
2024/02/18 04:04:05;;;;;;;2.00;1.48;;;;;;;;;;2048730;28;20051;-52
2024/02/18 04:05:07;;;;;;;2.28;1.55;;;;;;;;;;2063924;28;20018;-52
2024/02/18 04:06:09;;;;;;;3.22;1.48;;;;;;;;;;2063705;28;20043;-51
2024/02/18 04:07:10;;;;;;;2.72;1.52;;;;;;;;;;2055940;28;20131;-47
2024/02/18 04:08:11;;;;;;;3.20;1.75;;;;;;;;;;2052565;28;20027;-47
2024/02/18 04:09:13;;;;;;;2.97;1.50;;;;;;;;;;2056246;28;20109;-48
2024/02/18 04:10:14;;;;;;;2.13;1.48;;;;;;;;;;2056329;28;20062;-47
2024/02/18 04:11:15;;;;;;;3.13;1.60;;;;;;;;;;2055768;28;20390;-47
2024/02/18 04:12:16;;;;;;;2.60;1.50;;;;;;;;;;2048577;28;20039;-47
2024/02/18 04:13:18;;;;;;;2.67;1.27;;;;;;;;;;2056186;28;20486;-47
2024/02/18 04:14:19;;;;;;;3.10;1.65;;;;;;;;;;2056377;28;20023;-48
2024/02/18 04:15:22;;;;;;;4.72;1.92;;;;;;;;;;2051506;28;20019;-47
2024/02/18 04:16:24;;;;;;;2.80;1.40;;;;;;;;;;2055932;28;20031;-48
2024/02/18 04:17:25;;;;;;;2.40;1.27;;;;;;;;;;2056179;28;20054;-47
2024/02/18 04:18:26;;;;;;;2.15;1.48;;;;;;;;;;2056211;28;20019;-51
2024/02/18 04:19:28;;;;;;;4.80;1.55;;;;;;;;;;2056446;28;20076;-50
2024/02/18 04:20:29;;;;;;;3.15;1.52;;;;;;;;;;2056340;28;20432;-50
2024/02/18 04:21:31;;;;;;;2.50;1.60;;;;;;;;;;2056549;28;20027;-50
2024/02/18 04:22:32;;;;;;;3.80;1.77;;;;;;;;;;2055624;28;20093;-51
2024/02/18 04:23:33;;;;;;;2.17;1.23;;;;;;;;;;2055828;28;20787;-50
2024/02/18 04:24:35;;;;;;;2.40;1.40;;;;;;;;;;2053337;28;20411;-52
2024/02/18 04:25:36;;;;;;;2.47;1.20;;;;;;;;;;2056328;28;20027;-50
2024/02/18 04:26:37;;;;;;;2.88;1.60;;;;;;;;;;2056324;28;20022;-50
2024/02/18 04:27:39;;;;;;;3.63;1.60;;;;;;;;;;2056366;28;20077;-51
2024/02/18 04:28:41;;;;;;;3.03;1.52;;;;;;;;;;2056394;28;20149;-49
2024/02/18 04:29:42;;;;;;;5.20;1.95;;;;;;;;;;2056136;28;20019;-49
2024/02/18 04:30:43;;;;;;;2.55;1.30;;;;;;;;;;2056316;28;20087;-51
2024/02/18 04:31:44;;;;;;;2.45;1.60;;;;;;;;;;2056324;28;20023;-49
2024/02/18 04:32:46;;;;;;;1.85;1.27;;;;;;;;;;2056343;28;20023;-49
2024/02/18 04:33:47;;;;;;;2.92;1.60;;;;;;;;;;2055493;28;20533;-49
2024/02/18 04:34:48;;;;;;;2.53;1.63;;;;;;;;;;2048386;28;20011;-49
2024/02/18 04:35:49;;;;;;;2.42;1.45;;;;;;;;;;2056035;28;20022;-48
2024/02/18 04:36:51;;;;;;;3.03;1.60;;;;;;;;;;2056299;28;20114;-49
2024/02/18 04:37:52;;;;;;;4.00;1.30;;;;;;;;;;2056404;28;20206;-50
2024/02/18 04:38:53;;;;;;;2.75;1.83;;;;;;;;;;2056336;28;20106;-49
2024/02/18 04:39:54;;;;;;;2.20;1.60;;;;;;;;;;2056412;28;20086;-49
2024/02/18 04:40:55;;;;;;;3.88;1.63;;;;;;;;;;2055419;28;20007;-49
2024/02/18 04:41:57;;;;;;;4.82;1.92;;;;;;;;;;2055104;28;20019;-50
2024/02/18 04:42:58;;;;;;;2.90;1.60;;;;;;;;;;2056244;28;20019;-50
2024/02/18 04:43:59;;;;;;;2.08;1.40;;;;;;;;;;2056621;28;20011;-49
2024/02/18 04:45:00;;;;;;;2.20;1.45;;;;;;;;;;2056444;28;20126;-50
2024/02/18 04:46:02;;;;;;;3.30;1.80;;;;;;;;;;2055820;28;20106;-47
2024/02/18 04:47:03;;;;;;;3.03;1.50;;;;;;;;;;2055695;28;20430;-49
2024/02/18 04:48:04;;;;;;;2.25;1.30;;;;;;;;;;2051673;28;20074;-52
2024/02/18 04:49:06;;;;;;;2.95;1.95;;;;;;;;;;2056435;28;20482;-52
2024/02/18 04:50:07;;;;;;;3.97;1.65;;;;;;;;;;2056391;28;20042;-51
2024/02/18 04:51:09;;;;;;;3.38;1.65;;;;;;;;;;2056517;28;20035;-50
2024/02/18 04:52:10;;;;;;;3.65;1.70;;;;;;;;;;2056702;28;20106;-51
2024/02/18 04:53:11;;;;;;;1.52;1.27;;;;;;;;;;2057243;28;20439;-52
2024/02/18 04:54:14;;;;;;;2.00;1.52;;;;;;;;;;2057868;28;20446;-46
2024/02/18 04:55:15;;;;;;;4.50;1.70;;;;;;;;;;2058006;28;20027;-50
2024/02/18 04:56:16;;;;;;;3.33;1.67;;;;;;;;;;2057705;28;20038;-51
2024/02/18 04:57:17;;;;;;;2.45;1.52;;;;;;;;;;2049381;28;20027;-52
2024/02/18 04:58:19;;;;;;;3.35;1.60;;;;;;;;;;2049361;28;20023;-52
2024/02/18 04:59:20;;;;;;;3.63;2.00;;;;;;;;;;2055679;28;20117;-51
2024/02/18 05:00:21;;;;;;;3.30;1.80;;;;;;;;;;2050060;29;20359;-50
2024/02/18 05:01:22;;;;;;;2.92;1.67;;;;;;;;;;2055608;28;20110;-50
2024/02/18 05:02:24;;;;;;;3.10;1.45;;;;;;;;;;2057150;28;20110;-50
2024/02/18 05:03:25;;;;;;;3.47;1.63;;;;;;;;;;2057421;28;20029;-50
2024/02/18 05:04:29;;;;;;;3.38;1.45;;;;;;;;;;2057654;28;20015;-50
2024/02/18 05:05:30;;;;;;;3.85;1.90;;;;;;;;;;2057838;28;20154;-52
2024/02/18 05:06:31;;;;;;;3.08;1.80;;;;;;;;;;2056561;28;20402;-50
2024/02/18 05:07:33;;;;;;;4.80;1.83;;;;;;;;;;2054547;28;20019;-50
2024/02/18 05:08:35;;;;;;;2.55;1.80;;;;;;;;;;2049934;28;20034;-50
2024/02/18 05:09:39;;;;;;;3.90;1.67;;;;;;;;;;2050205;28;20106;-50
2024/02/18 05:10:40;;;;;;;2.88;1.65;;;;;;;;;;2051941;28;20102;-49
2024/02/18 05:11:41;;;;;;;2.85;1.38;;;;;;;;;;2057699;28;20035;-51
2024/02/18 05:12:43;;;;;;;3.65;1.83;;;;;;;;;;2057549;28;20053;-47
2024/02/18 05:13:44;;;;;;;2.78;1.67;;;;;;;;;;2057620;28;20030;-48
2024/02/18 05:14:45;;;;;;;2.72;1.55;;;;;;;;;;2056949;28;20034;-47
2024/02/18 05:15:51;;;;;;;3.17;2.00;;;;;;;;;;2057196;28;20474;-47
2024/02/18 05:16:56;;;;;;;3.00;1.85;;;;;;;;;;2057594;28;20027;-47
2024/02/18 05:17:57;;;;;;;3.22;1.80;;;;;;;;;;2057658;28;20125;-48
2024/02/18 05:18:59;;;;;;;2.63;1.63;;;;;;;;;;2057851;28;20085;-47
2024/02/18 05:20:00;;;;;;;2.72;1.80;;;;;;;;;;2057659;28;20034;-48
2024/02/18 05:21:04;;;;;;;2.95;1.58;;;;;;;;;;2057887;28;20015;-48
2024/02/18 05:22:06;;;;;;;2.13;1.70;;;;;;;;;;2057931;28;20029;-47
2024/02/18 05:23:07;;;;;;;2.92;1.58;;;;;;;;;;2051505;28;20086;-49
2024/02/18 05:24:13;;;;;;;3.80;2.08;;;;;;;;;;2057458;28;20113;-50
2024/02/18 05:25:15;;;;;;;2.50;1.70;;;;;;;;;;2058413;28;20014;-48
2024/02/18 05:26:16;;;;;;;3.83;1.65;;;;;;;;;;2057837;28;20046;-50
2024/02/18 05:27:18;;;;;;;3.45;1.92;;;;;;;;;;2057972;28;20022;-47
2024/02/18 05:28:19;;;;;;;5.43;1.70;;;;;;;;;;2058027;28;20019;-48
2024/02/18 05:29:22;;;;;;;4.15;1.88;;;;;;;;;;2057537;28;20062;-48
2024/02/18 05:30:23;;;;;;;3.25;1.50;;;;;;;;;;2057682;28;20086;-48
2024/02/18 05:31:25;;;;;;;2.95;1.75;;;;;;;;;;2057718;28;20015;-48
2024/02/18 05:32:26;;;;;;;3.13;1.70;;;;;;;;;;2057583;28;20023;-52
2024/02/18 05:33:28;;;;;;;4.50;1.95;;;;;;;;;;2057742;28;20422;-48
2024/02/18 05:34:29;;;;;;;2.97;1.73;;;;;;;;;;2050932;28;20062;-48
2024/02/18 05:35:30;;;;;;;2.95;1.48;;;;;;;;;;2055903;28;20055;-48
2024/02/18 05:36:31;;;;;;;3.13;1.75;;;;;;;;;;2057570;28;20072;-48
2024/02/18 05:37:32;;;;;;;2.95;1.42;;;;;;;;;;2057506;28;20026;-48
2024/02/18 05:38:34;;;;;;;3.25;1.55;;;;;;;;;;2057616;28;20030;-47
2024/02/18 05:39:35;;;;;;;1.48;1.20;;;;;;;;;;2057574;28;20046;-46
2024/02/18 05:40:36;;;;;;;2.70;1.60;;;;;;;;;;2057453;28;20057;-47
2024/02/18 05:41:38;;;;;;;1.83;1.45;;;;;;;;;;2057425;28;20027;-47
2024/02/18 05:42:39;;;;;;;2.42;1.38;;;;;;;;;;2057734;28;20054;-48
2024/02/18 05:43:40;;;;;;;4.72;1.70;;;;;;;;;;2057343;28;20148;-47
2024/02/18 05:44:42;;;;;;;5.05;1.50;;;;;;;;;;2057426;28;20023;-49
2024/02/18 05:45:43;;;;;;;2.75;1.30;;;;;;;;;;2056832;28;20086;-50
2024/02/18 05:46:45;;;;;;;2.45;1.52;;;;;;;;;;2055510;28;20673;-51
2024/02/18 05:47:46;;;;;;;3.80;1.27;;;;;;;;;;2056675;28;20030;-47
2024/02/18 05:48:47;;;;;;;2.90;1.40;;;;;;;;;;2056987;28;20027;-49
2024/02/18 05:49:48;;;;;;;2.75;1.35;;;;;;;;;;2057495;28;20034;-49
2024/02/18 05:50:50;;;;;;;3.30;1.63;;;;;;;;;;2054148;28;20062;-50
2024/02/18 05:51:53;;;;;;;3.47;1.42;;;;;;;;;;2057296;28;20038;-51
2024/02/18 05:52:54;;;;;;;2.05;1.63;;;;;;;;;;2057285;28;20031;-50
2024/02/18 05:53:55;;;;;;;2.63;1.60;;;;;;;;;;2056696;28;20015;-50
2024/02/18 05:54:57;;;;;;;2.65;1.42;;;;;;;;;;2056661;28;20521;-46
2024/02/18 05:55:58;;;;;;;2.30;1.38;;;;;;;;;;2057492;28;20109;-50
2024/02/18 05:56:59;;;;;;;2.35;1.48;;;;;;;;;;2057339;28;20051;-51
2024/02/18 05:58:00;;;;;;;2.08;1.30;;;;;;;;;;2057454;28;20434;-50
2024/02/18 05:59:03;;;;;;;4.57;1.52;;;;;;;;;;2057321;28;20093;-51
2024/02/18 06:00:05;;;;;;;3.63;1.38;;;;;;;;;;2057405;28;20047;-51
2024/02/18 06:01:06;;;;;;;3.25;1.25;;;;;;;;;;2057588;28;20027;-51
2024/02/18 06:02:07;;;;;;;3.15;1.30;;;;;;;;;;2057462;28;20023;-48
2024/02/18 06:03:08;;;;;;;2.33;1.38;;;;;;;;;;2057386;28;20038;-51
2024/02/18 06:04:09;;;;;;;2.20;1.40;;;;;;;;;;2056304;28;20149;-51
2024/02/18 06:05:15;;;;;;;2.75;1.38;;;;;;;;;;2056058;28;20030;-50
2024/02/18 06:06:17;;;;;;;3.38;1.30;;;;;;;;;;2057340;28;20014;-51
2024/02/18 06:07:18;;;;;;;1.30;1.10;;;;;;;;;;2057291;28;20025;-50
2024/02/18 06:08:20;;;;;;;3.17;1.20;;;;;;;;;;2055714;28;20035;-50
2024/02/18 06:09:21;;;;;;;3.35;1.58;;;;;;;;;;2057435;28;20018;-50